sensor_id;sensor_type;location;lat;lon;timestamp;temperature;humidity
2867;DHT22;1441;48.886;8.728;2023-07-20T00:01:30;20.20;69.80
2867;DHT22;1441;48.886;8.728;2023-07-20T00:03:56;20.10;70.10
2867;DHT22;1441;48.886;8.728;2023-07-20T00:06:22;20.10;70.50
2867;DHT22;1441;48.886;8.728;2023-07-20T00:08:49;20.00;70.70
2867;DHT22;1441;48.886;8.728;2023-07-20T00:11:14;19.90;70.60
2867;DHT22;1441;48.886;8.728;2023-07-20T00:13:40;19.90;70.70
2867;DHT22;1441;48.886;8.728;2023-07-20T00:16:06;19.90;70.80
2867;DHT22;1441;48.886;8.728;2023-07-20T00:18:32;19.90;70.90
2867;DHT22;1441;48.886;8.728;2023-07-20T00:20:57;19.90;70.90
2867;DHT22;1441;48.886;8.728;2023-07-20T00:23:25;19.80;70.90
2867;DHT22;1441;48.886;8.728;2023-07-20T00:25:53;19.80;71.20
2867;DHT22;1441;48.886;8.728;2023-07-20T00:28:19;19.70;71.10
2867;DHT22;1441;48.886;8.728;2023-07-20T00:30:45;19.70;71.50
2867;DHT22;1441;48.886;8.728;2023-07-20T00:33:11;19.70;72.00
2867;DHT22;1441;48.886;8.728;2023-07-20T00:35:38;19.60;72.00
2867;DHT22;1441;48.886;8.728;2023-07-20T00:38:04;19.60;72.60
2867;DHT22;1441;48.886;8.728;2023-07-20T00:40:40;19.50;72.40
2867;DHT22;1441;48.886;8.728;2023-07-20T00:43:06;19.50;72.80
2867;DHT22;1441;48.886;8.728;2023-07-20T00:45:33;19.50;72.90
2867;DHT22;1441;48.886;8.728;2023-07-20T00:47:59;19.40;73.10
2867;DHT22;1441;48.886;8.728;2023-07-20T00:50:26;19.30;73.10
2867;DHT22;1441;48.886;8.728;2023-07-20T00:52:54;19.30;73.30
2867;DHT22;1441;48.886;8.728;2023-07-20T00:55:19;19.30;73.50
2867;DHT22;1441;48.886;8.728;2023-07-20T00:57:45;19.30;73.70
2867;DHT22;1441;48.886;8.728;2023-07-20T01:00:11;19.20;74.10
2867;DHT22;1441;48.886;8.728;2023-07-20T01:02:37;19.10;74.70
2867;DHT22;1441;48.886;8.728;2023-07-20T01:05:04;19.10;74.70
2867;DHT22;1441;48.886;8.728;2023-07-20T01:07:37;19.00;74.90
2867;DHT22;1441;48.886;8.728;2023-07-20T01:10:40;19.00;74.90
2867;DHT22;1441;48.886;8.728;2023-07-20T01:13:07;19.00;75.20
2867;DHT22;1441;48.886;8.728;2023-07-20T01:15:34;18.90;75.40
2867;DHT22;1441;48.886;8.728;2023-07-20T01:18:00;18.90;75.40
2867;DHT22;1441;48.886;8.728;2023-07-20T01:20:28;18.80;75.40
2867;DHT22;1441;48.886;8.728;2023-07-20T01:33:49;18.70;76.00
2867;DHT22;1441;48.886;8.728;2023-07-20T01:36:17;18.70;76.10
2867;DHT22;1441;48.886;8.728;2023-07-20T01:38:43;18.70;76.30
2867;DHT22;1441;48.886;8.728;2023-07-20T01:41:10;18.70;76.30
2867;DHT22;1441;48.886;8.728;2023-07-20T01:43:36;18.60;76.30
2867;DHT22;1441;48.886;8.728;2023-07-20T01:46:02;18.60;76.30
2867;DHT22;1441;48.886;8.728;2023-07-20T01:48:27;18.60;76.40
2867;DHT22;1441;48.886;8.728;2023-07-20T01:50:53;18.60;76.50
2867;DHT22;1441;48.886;8.728;2023-07-20T01:53:19;18.50;76.50
2867;DHT22;1441;48.886;8.728;2023-07-20T01:55:45;18.50;76.60
2867;DHT22;1441;48.886;8.728;2023-07-20T01:58:10;18.50;76.70
2867;DHT22;1441;48.886;8.728;2023-07-20T02:00:39;18.40;76.90
2867;DHT22;1441;48.886;8.728;2023-07-20T02:03:05;18.40;77.10
2867;DHT22;1441;48.886;8.728;2023-07-20T02:05:31;18.30;77.20
2867;DHT22;1441;48.886;8.728;2023-07-20T02:07:56;18.30;77.20
2867;DHT22;1441;48.886;8.728;2023-07-20T02:10:22;18.30;77.40
2867;DHT22;1441;48.886;8.728;2023-07-20T02:12:47;18.20;77.70
2867;DHT22;1441;48.886;8.728;2023-07-20T02:15:14;18.20;78.00
2867;DHT22;1441;48.886;8.728;2023-07-20T02:17:42;18.20;78.00
2867;DHT22;1441;48.886;8.728;2023-07-20T02:20:08;18.20;78.00
2867;DHT22;1441;48.886;8.728;2023-07-20T02:22:36;18.10;77.90
2867;DHT22;1441;48.886;8.728;2023-07-20T02:25:03;18.10;78.00
2867;DHT22;1441;48.886;8.728;2023-07-20T02:27:28;18.10;78.00
2867;DHT22;1441;48.886;8.728;2023-07-20T02:29:54;18.10;78.10
2867;DHT22;1441;48.886;8.728;2023-07-20T02:32:20;18.10;78.20
2867;DHT22;1441;48.886;8.728;2023-07-20T02:34:45;18.10;78.10
2867;DHT22;1441;48.886;8.728;2023-07-20T02:37:11;18.10;78.10
2867;DHT22;1441;48.886;8.728;2023-07-20T02:39:38;18.00;78.50
2867;DHT22;1441;48.886;8.728;2023-07-20T02:42:04;18.00;78.40
2867;DHT22;1441;48.886;8.728;2023-07-20T02:44:30;18.00;78.70
2867;DHT22;1441;48.886;8.728;2023-07-20T02:46:55;17.90;78.80
2867;DHT22;1441;48.886;8.728;2023-07-20T02:49:21;18.00;78.70
2867;DHT22;1441;48.886;8.728;2023-07-20T02:51:46;18.00;79.00
2867;DHT22;1441;48.886;8.728;2023-07-20T02:54:12;18.00;78.90
2867;DHT22;1441;48.886;8.728;2023-07-20T02:56:38;18.00;79.00
2867;DHT22;1441;48.886;8.728;2023-07-20T02:59:03;18.00;79.00
2867;DHT22;1441;48.886;8.728;2023-07-20T03:01:29;17.90;79.30
2867;DHT22;1441;48.886;8.728;2023-07-20T03:03:55;17.90;79.60
2867;DHT22;1441;48.886;8.728;2023-07-20T03:06:21;17.90;79.30
2867;DHT22;1441;48.886;8.728;2023-07-20T03:08:47;17.90;79.60
2867;DHT22;1441;48.886;8.728;2023-07-20T03:11:14;17.90;79.50
2867;DHT22;1441;48.886;8.728;2023-07-20T03:13:41;17.90;79.30
2867;DHT22;1441;48.886;8.728;2023-07-20T03:16:08;17.90;79.40
2867;DHT22;1441;48.886;8.728;2023-07-20T03:18:37;17.90;79.20
2867;DHT22;1441;48.886;8.728;2023-07-20T03:21:04;17.90;79.40
2867;DHT22;1441;48.886;8.728;2023-07-20T03:23:30;17.90;79.50
2867;DHT22;1441;48.886;8.728;2023-07-20T03:25:55;17.90;79.70
2867;DHT22;1441;48.886;8.728;2023-07-20T03:28:21;17.90;79.60
2867;DHT22;1441;48.886;8.728;2023-07-20T03:30:52;17.80;79.70
2867;DHT22;1441;48.886;8.728;2023-07-20T03:33:18;17.80;79.80
2867;DHT22;1441;48.886;8.728;2023-07-20T03:35:43;17.80;79.90
2867;DHT22;1441;48.886;8.728;2023-07-20T03:38:09;17.90;80.00
2867;DHT22;1441;48.886;8.728;2023-07-20T03:40:34;17.70;80.20
2867;DHT22;1441;48.886;8.728;2023-07-20T03:43:00;17.60;80.60
2867;DHT22;1441;48.886;8.728;2023-07-20T03:45:25;17.60;80.90
2867;DHT22;1441;48.886;8.728;2023-07-20T03:47:51;17.50;81.10
2867;DHT22;1441;48.886;8.728;2023-07-20T03:50:16;17.50;81.50
2867;DHT22;1441;48.886;8.728;2023-07-20T03:52:42;17.40;81.80
2867;DHT22;1441;48.886;8.728;2023-07-20T03:55:08;17.40;82.00
2867;DHT22;1441;48.886;8.728;2023-07-20T03:57:33;17.40;81.80
2867;DHT22;1441;48.886;8.728;2023-07-20T03:59:59;17.40;81.90
2867;DHT22;1441;48.886;8.728;2023-07-20T04:02:25;17.40;82.50
2867;DHT22;1441;48.886;8.728;2023-07-20T04:04:51;17.40;82.30
2867;DHT22;1441;48.886;8.728;2023-07-20T04:07:16;17.40;82.50
2867;DHT22;1441;48.886;8.728;2023-07-20T04:09:42;17.40;82.50
2867;DHT22;1441;48.886;8.728;2023-07-20T04:12:07;17.40;82.80
2867;DHT22;1441;48.886;8.728;2023-07-20T04:14:34;17.40;82.80
2867;DHT22;1441;48.886;8.728;2023-07-20T04:16:59;17.40;82.80
2867;DHT22;1441;48.886;8.728;2023-07-20T04:19:26;17.40;83.30
2867;DHT22;1441;48.886;8.728;2023-07-20T04:21:51;17.50;82.70
2867;DHT22;1441;48.886;8.728;2023-07-20T04:24:17;17.50;82.90
2867;DHT22;1441;48.886;8.728;2023-07-20T04:26:42;17.60;82.60
2867;DHT22;1441;48.886;8.728;2023-07-20T04:29:08;17.60;82.60
2867;DHT22;1441;48.886;8.728;2023-07-20T04:31:34;17.60;82.70
2867;DHT22;1441;48.886;8.728;2023-07-20T04:34:00;17.60;82.60
2867;DHT22;1441;48.886;8.728;2023-07-20T04:36:26;17.70;82.40
2867;DHT22;1441;48.886;8.728;2023-07-20T04:38:52;17.70;82.50
2867;DHT22;1441;48.886;8.728;2023-07-20T04:41:17;17.70;82.20
2867;DHT22;1441;48.886;8.728;2023-07-20T04:43:44;17.80;81.60
2867;DHT22;1441;48.886;8.728;2023-07-20T04:46:11;17.90;82.00
2867;DHT22;1441;48.886;8.728;2023-07-20T04:48:37;17.90;82.00
2867;DHT22;1441;48.886;8.728;2023-07-20T04:51:03;17.90;81.70
2867;DHT22;1441;48.886;8.728;2023-07-20T04:53:29;18.00;82.00
2867;DHT22;1441;48.886;8.728;2023-07-20T04:55:54;18.00;82.00
2867;DHT22;1441;48.886;8.728;2023-07-20T04:58:21;18.10;82.20
2867;DHT22;1441;48.886;8.728;2023-07-20T05:00:48;18.10;82.40
2867;DHT22;1441;48.886;8.728;2023-07-20T05:03:14;18.10;82.80
2867;DHT22;1441;48.886;8.728;2023-07-20T05:05:40;18.10;82.70
2867;DHT22;1441;48.886;8.728;2023-07-20T05:08:05;18.10;83.00
2867;DHT22;1441;48.886;8.728;2023-07-20T05:10:31;18.10;82.60
2867;DHT22;1441;48.886;8.728;2023-07-20T05:12:58;18.20;82.10
2867;DHT22;1441;48.886;8.728;2023-07-20T05:15:24;18.20;82.30
2867;DHT22;1441;48.886;8.728;2023-07-20T05:17:49;18.30;81.80
2867;DHT22;1441;48.886;8.728;2023-07-20T05:20:15;18.30;81.90
2867;DHT22;1441;48.886;8.728;2023-07-20T05:22:41;18.40;81.90
2867;DHT22;1441;48.886;8.728;2023-07-20T05:25:10;18.40;82.50
2867;DHT22;1441;48.886;8.728;2023-07-20T05:27:37;18.50;82.60
2867;DHT22;1441;48.886;8.728;2023-07-20T05:30:04;18.70;82.20
2867;DHT22;1441;48.886;8.728;2023-07-20T05:32:30;18.90;81.30
2867;DHT22;1441;48.886;8.728;2023-07-20T05:34:55;19.10;80.80
2867;DHT22;1441;48.886;8.728;2023-07-20T05:37:21;19.40;80.20
2867;DHT22;1441;48.886;8.728;2023-07-20T05:39:47;19.60;79.70
2867;DHT22;1441;48.886;8.728;2023-07-20T05:42:13;19.80;78.70
2867;DHT22;1441;48.886;8.728;2023-07-20T05:44:39;19.90;78.20
2867;DHT22;1441;48.886;8.728;2023-07-20T05:47:05;20.00;77.80
2867;DHT22;1441;48.886;8.728;2023-07-20T05:49:31;20.30;77.20
2867;DHT22;1441;48.886;8.728;2023-07-20T05:51:56;21.30;73.60
2867;DHT22;1441;48.886;8.728;2023-07-20T05:54:24;22.80;70.40
2867;DHT22;1441;48.886;8.728;2023-07-20T05:56:50;24.20;66.70
2867;DHT22;1441;48.886;8.728;2023-07-20T05:59:16;25.10;64.40
2867;DHT22;1441;48.886;8.728;2023-07-20T06:01:42;25.90;62.90
2867;DHT22;1441;48.886;8.728;2023-07-20T06:04:08;26.20;61.60
2867;DHT22;1441;48.886;8.728;2023-07-20T06:06:34;25.30;63.30
2867;DHT22;1441;48.886;8.728;2023-07-20T06:09:00;25.00;63.90
2867;DHT22;1441;48.886;8.728;2023-07-20T06:11:29;24.30;65.50
2867;DHT22;1441;48.886;8.728;2023-07-20T06:13:56;24.90;64.20
2867;DHT22;1441;48.886;8.728;2023-07-20T06:16:21;25.00;64.00
2867;DHT22;1441;48.886;8.728;2023-07-20T06:18:47;25.30;63.60
2867;DHT22;1441;48.886;8.728;2023-07-20T06:21:13;25.00;64.30
2867;DHT22;1441;48.886;8.728;2023-07-20T06:23:38;25.40;63.40
2867;DHT22;1441;48.886;8.728;2023-07-20T06:26:06;25.30;62.80
2867;DHT22;1441;48.886;8.728;2023-07-20T06:28:32;24.40;65.00
2867;DHT22;1441;48.886;8.728;2023-07-20T06:31:01;24.70;64.30
2867;DHT22;1441;48.886;8.728;2023-07-20T06:33:27;26.30;61.20
2867;DHT22;1441;48.886;8.728;2023-07-20T06:35:52;27.20;58.80
2867;DHT22;1441;48.886;8.728;2023-07-20T06:38:18;28.00;57.10
2867;DHT22;1441;48.886;8.728;2023-07-20T06:40:46;28.30;56.00
2867;DHT22;1441;48.886;8.728;2023-07-20T06:43:12;28.80;55.40
2867;DHT22;1441;48.886;8.728;2023-07-20T06:45:38;29.00;54.60
2867;DHT22;1441;48.886;8.728;2023-07-20T06:48:04;29.10;54.50
2867;DHT22;1441;48.886;8.728;2023-07-20T06:50:29;29.20;54.30
2867;DHT22;1441;48.886;8.728;2023-07-20T06:52:55;29.30;54.50
2867;DHT22;1441;48.886;8.728;2023-07-20T06:55:20;29.40;54.00
2867;DHT22;1441;48.886;8.728;2023-07-20T06:57:46;29.90;52.90
2867;DHT22;1441;48.886;8.728;2023-07-20T07:00:12;29.00;54.40
2867;DHT22;1441;48.886;8.728;2023-07-20T07:02:38;29.20;54.80
2867;DHT22;1441;48.886;8.728;2023-07-20T07:05:04;29.50;54.20
2867;DHT22;1441;48.886;8.728;2023-07-20T07:07:29;29.40;54.60
2867;DHT22;1441;48.886;8.728;2023-07-20T07:09:55;29.10;55.10
2867;DHT22;1441;48.886;8.728;2023-07-20T07:12:21;29.20;55.30
2867;DHT22;1441;48.886;8.728;2023-07-20T07:14:46;28.60;55.80
2867;DHT22;1441;48.886;8.728;2023-07-20T07:17:12;28.30;56.60
2867;DHT22;1441;48.886;8.728;2023-07-20T07:19:37;28.00;57.30
2867;DHT22;1441;48.886;8.728;2023-07-20T07:22:04;26.70;59.30
2867;DHT22;1441;48.886;8.728;2023-07-20T07:24:29;25.50;62.00
2867;DHT22;1441;48.886;8.728;2023-07-20T07:27:02;24.60;64.20
2867;DHT22;1441;48.886;8.728;2023-07-20T07:29:29;24.70;64.40
2867;DHT22;1441;48.886;8.728;2023-07-20T07:31:55;26.20;61.90
2867;DHT22;1441;48.886;8.728;2023-07-20T07:34:20;28.40;57.60
2867;DHT22;1441;48.886;8.728;2023-07-20T07:36:46;29.80;54.50
2867;DHT22;1441;48.886;8.728;2023-07-20T07:39:12;29.90;53.80
2867;DHT22;1441;48.886;8.728;2023-07-20T07:41:38;28.60;55.90
2867;DHT22;1441;48.886;8.728;2023-07-20T07:44:04;28.30;56.70
2867;DHT22;1441;48.886;8.728;2023-07-20T07:46:29;29.10;55.50
2867;DHT22;1441;48.886;8.728;2023-07-20T07:48:55;29.30;54.50
2867;DHT22;1441;48.886;8.728;2023-07-20T07:51:20;28.10;57.10
2867;DHT22;1441;48.886;8.728;2023-07-20T07:53:46;28.60;56.20
2867;DHT22;1441;48.886;8.728;2023-07-20T07:56:12;30.00;54.10
2867;DHT22;1441;48.886;8.728;2023-07-20T07:58:37;30.60;52.60
2867;DHT22;1441;48.886;8.728;2023-07-20T08:01:04;30.00;53.40
2867;DHT22;1441;48.886;8.728;2023-07-20T08:03:29;29.40;54.70
2867;DHT22;1441;48.886;8.728;2023-07-20T08:05:55;28.80;55.10
2867;DHT22;1441;48.886;8.728;2023-07-20T08:08:21;29.70;54.50
2867;DHT22;1441;48.886;8.728;2023-07-20T08:10:47;30.50;52.40
2867;DHT22;1441;48.886;8.728;2023-07-20T08:13:13;30.40;52.80
2867;DHT22;1441;48.886;8.728;2023-07-20T08:15:39;30.40;53.10
2867;DHT22;1441;48.886;8.728;2023-07-20T08:18:04;30.40;53.00
2867;DHT22;1441;48.886;8.728;2023-07-20T08:20:31;30.40;52.90
2867;DHT22;1441;48.886;8.728;2023-07-20T08:22:57;30.90;52.40
2867;DHT22;1441;48.886;8.728;2023-07-20T08:25:25;30.90;51.80
2867;DHT22;1441;48.886;8.728;2023-07-20T08:27:50;31.10;51.50
2867;DHT22;1441;48.886;8.728;2023-07-20T08:30:16;31.60;50.50
2867;DHT22;1441;48.886;8.728;2023-07-20T08:32:42;31.30;50.80
2867;DHT22;1441;48.886;8.728;2023-07-20T08:35:08;30.30;52.70
2867;DHT22;1441;48.886;8.728;2023-07-20T08:37:34;30.40;52.30
2867;DHT22;1441;48.886;8.728;2023-07-20T08:40:00;30.70;51.20
2867;DHT22;1441;48.886;8.728;2023-07-20T08:42:27;30.50;51.50
2867;DHT22;1441;48.886;8.728;2023-07-20T08:44:53;30.90;51.10
2867;DHT22;1441;48.886;8.728;2023-07-20T08:47:20;31.10;50.80
2867;DHT22;1441;48.886;8.728;2023-07-20T08:49:48;31.00;50.20
2867;DHT22;1441;48.886;8.728;2023-07-20T08:52:14;31.70;49.70
2867;DHT22;1441;48.886;8.728;2023-07-20T08:54:39;31.90;49.30
2867;DHT22;1441;48.886;8.728;2023-07-20T08:57:05;31.70;49.50
2867;DHT22;1441;48.886;8.728;2023-07-20T08:59:32;32.50;47.80
2867;DHT22;1441;48.886;8.728;2023-07-20T09:02:00;32.00;49.00
2867;DHT22;1441;48.886;8.728;2023-07-20T09:04:27;31.50;49.20
2867;DHT22;1441;48.886;8.728;2023-07-20T09:06:53;31.30;48.80
2867;DHT22;1441;48.886;8.728;2023-07-20T09:09:18;31.60;49.50
2867;DHT22;1441;48.886;8.728;2023-07-20T09:11:47;31.80;49.40
2867;DHT22;1441;48.886;8.728;2023-07-20T09:14:13;31.00;49.00
2867;DHT22;1441;48.886;8.728;2023-07-20T09:16:53;31.00;49.10
2867;DHT22;1441;48.886;8.728;2023-07-20T09:19:20;30.90;49.20
2867;DHT22;1441;48.886;8.728;2023-07-20T09:21:46;31.10;49.30
2867;DHT22;1441;48.886;8.728;2023-07-20T09:24:13;31.70;48.90
2867;DHT22;1441;48.886;8.728;2023-07-20T09:26:43;32.50;47.50
2867;DHT22;1441;48.886;8.728;2023-07-20T09:29:09;33.30;46.10
2867;DHT22;1441;48.886;8.728;2023-07-20T09:31:35;32.70;46.20
2867;DHT22;1441;48.886;8.728;2023-07-20T09:34:01;32.00;47.40
2867;DHT22;1441;48.886;8.728;2023-07-20T09:36:27;31.70;47.50
2867;DHT22;1441;48.886;8.728;2023-07-20T09:38:53;31.70;47.60
2867;DHT22;1441;48.886;8.728;2023-07-20T09:41:20;32.50;46.80
2867;DHT22;1441;48.886;8.728;2023-07-20T09:43:46;32.90;46.20
2867;DHT22;1441;48.886;8.728;2023-07-20T09:46:12;32.90;45.10
2867;DHT22;1441;48.886;8.728;2023-07-20T09:48:37;33.00;45.70
2867;DHT22;1441;48.886;8.728;2023-07-20T09:51:03;33.10;45.80
2867;DHT22;1441;48.886;8.728;2023-07-20T09:53:32;33.20;45.60
2867;DHT22;1441;48.886;8.728;2023-07-20T09:55:58;32.50;45.80
2867;DHT22;1441;48.886;8.728;2023-07-20T09:58:26;32.10;47.00
2867;DHT22;1441;48.886;8.728;2023-07-20T10:00:52;32.20;45.70
2867;DHT22;1441;48.886;8.728;2023-07-20T10:03:21;31.20;46.60
2867;DHT22;1441;48.886;8.728;2023-07-20T10:06:07;29.20;48.80
2867;DHT22;1441;48.886;8.728;2023-07-20T10:08:38;29.00;50.30
2867;DHT22;1441;48.886;8.728;2023-07-20T10:11:08;29.60;50.00
2867;DHT22;1441;48.886;8.728;2023-07-20T10:13:38;30.60;49.00
2867;DHT22;1441;48.886;8.728;2023-07-20T10:16:22;31.50;47.10
2867;DHT22;1441;48.886;8.728;2023-07-20T10:21:22;31.60;47.50
2867;DHT22;1441;48.886;8.728;2023-07-20T10:23:51;32.10;46.30
2867;DHT22;1441;48.886;8.728;2023-07-20T10:26:16;30.60;47.30
2867;DHT22;1441;48.886;8.728;2023-07-20T10:28:42;30.30;48.60
2867;DHT22;1441;48.886;8.728;2023-07-20T10:31:10;30.40;47.40
2867;DHT22;1441;48.886;8.728;2023-07-20T10:33:38;30.40;46.90
2867;DHT22;1441;48.886;8.728;2023-07-20T10:36:04;30.80;46.90
2867;DHT22;1441;48.886;8.728;2023-07-20T10:38:52;30.10;48.10
2867;DHT22;1441;48.886;8.728;2023-07-20T10:44:07;29.50;49.90
2867;DHT22;1441;48.886;8.728;2023-07-20T10:49:08;29.30;50.30
2867;DHT22;1441;48.886;8.728;2023-07-20T10:51:46;29.20;50.50
2867;DHT22;1441;48.886;8.728;2023-07-20T10:56:42;29.60;47.90
2867;DHT22;1441;48.886;8.728;2023-07-20T11:01:56;29.40;48.40
2867;DHT22;1441;48.886;8.728;2023-07-20T11:04:45;29.30;49.00
2867;DHT22;1441;48.886;8.728;2023-07-20T11:07:16;29.00;48.90
2867;DHT22;1441;48.886;8.728;2023-07-20T11:09:42;29.60;47.90
2867;DHT22;1441;48.886;8.728;2023-07-20T11:12:17;29.70;47.70
2867;DHT22;1441;48.886;8.728;2023-07-20T11:14:43;29.20;47.60
2867;DHT22;1441;48.886;8.728;2023-07-20T11:17:14;29.10;47.70
2867;DHT22;1441;48.886;8.728;2023-07-20T11:19:40;29.20;48.90
2867;DHT22;1441;48.886;8.728;2023-07-20T11:22:08;29.10;48.90
2867;DHT22;1441;48.886;8.728;2023-07-20T11:24:39;28.80;49.90
2867;DHT22;1441;48.886;8.728;2023-07-20T11:27:05;28.80;50.90
2867;DHT22;1441;48.886;8.728;2023-07-20T11:29:30;29.10;50.40
2867;DHT22;1441;48.886;8.728;2023-07-20T11:31:56;29.50;48.90
2867;DHT22;1441;48.886;8.728;2023-07-20T11:34:22;29.50;48.20
2867;DHT22;1441;48.886;8.728;2023-07-20T11:36:49;29.40;48.90
2867;DHT22;1441;48.886;8.728;2023-07-20T11:39:16;29.40;47.80
2867;DHT22;1441;48.886;8.728;2023-07-20T11:41:49;29.30;47.90
2867;DHT22;1441;48.886;8.728;2023-07-20T11:44:19;29.20;50.00
2867;DHT22;1441;48.886;8.728;2023-07-20T11:46:45;29.40;49.20
2867;DHT22;1441;48.886;8.728;2023-07-20T11:49:11;29.60;48.80
2867;DHT22;1441;48.886;8.728;2023-07-20T11:51:38;29.50;48.10
2867;DHT22;1441;48.886;8.728;2023-07-20T11:54:06;29.10;47.80
2867;DHT22;1441;48.886;8.728;2023-07-20T11:56:32;28.70;49.80
2867;DHT22;1441;48.886;8.728;2023-07-20T11:58:58;28.70;49.30
2867;DHT22;1441;48.886;8.728;2023-07-20T12:01:29;29.20;47.80
2867;DHT22;1441;48.886;8.728;2023-07-20T12:03:56;29.00;47.10
2867;DHT22;1441;48.886;8.728;2023-07-20T12:06:27;28.90;47.70
2867;DHT22;1441;48.886;8.728;2023-07-20T12:08:57;29.10;47.30
2867;DHT22;1441;48.886;8.728;2023-07-20T12:11:35;29.30;47.70
2867;DHT22;1441;48.886;8.728;2023-07-20T12:14:02;29.10;48.50
2867;DHT22;1441;48.886;8.728;2023-07-20T12:16:29;29.00;48.80
2867;DHT22;1441;48.886;8.728;2023-07-20T12:21:35;29.40;46.80
2867;DHT22;1441;48.886;8.728;2023-07-20T12:24:04;29.60;47.00
2867;DHT22;1441;48.886;8.728;2023-07-20T12:26:31;29.50;47.10
2867;DHT22;1441;48.886;8.728;2023-07-20T12:28:57;29.20;46.40
2867;DHT22;1441;48.886;8.728;2023-07-20T12:31:23;29.20;47.00
2867;DHT22;1441;48.886;8.728;2023-07-20T12:33:50;29.30;47.20
2867;DHT22;1441;48.886;8.728;2023-07-20T12:36:16;29.40;45.90
2867;DHT22;1441;48.886;8.728;2023-07-20T12:38:41;29.50;44.80
2867;DHT22;1441;48.886;8.728;2023-07-20T12:41:09;29.60;45.10
2867;DHT22;1441;48.886;8.728;2023-07-20T12:43:34;29.70;41.60
2867;DHT22;1441;48.886;8.728;2023-07-20T12:46:00;29.60;43.70
2867;DHT22;1441;48.886;8.728;2023-07-20T12:48:25;29.40;43.30
2867;DHT22;1441;48.886;8.728;2023-07-20T12:50:51;29.50;44.00
2867;DHT22;1441;48.886;8.728;2023-07-20T12:53:17;29.40;44.80
2867;DHT22;1441;48.886;8.728;2023-07-20T12:55:43;29.60;44.50
2867;DHT22;1441;48.886;8.728;2023-07-20T12:58:09;29.90;43.00
2867;DHT22;1441;48.886;8.728;2023-07-20T13:00:35;30.00;44.10
2867;DHT22;1441;48.886;8.728;2023-07-20T13:03:01;29.80;45.10
2867;DHT22;1441;48.886;8.728;2023-07-20T13:05:31;29.60;45.00
2867;DHT22;1441;48.886;8.728;2023-07-20T13:07:57;29.60;45.60
2867;DHT22;1441;48.886;8.728;2023-07-20T13:10:24;29.80;45.20
2867;DHT22;1441;48.886;8.728;2023-07-20T13:12:49;29.80;46.20
2867;DHT22;1441;48.886;8.728;2023-07-20T13:15:16;29.90;45.00
2867;DHT22;1441;48.886;8.728;2023-07-20T13:17:41;29.90;45.50
2867;DHT22;1441;48.886;8.728;2023-07-20T13:20:09;29.90;45.00
2867;DHT22;1441;48.886;8.728;2023-07-20T13:22:39;29.80;42.60
2867;DHT22;1441;48.886;8.728;2023-07-20T13:25:05;29.60;42.40
2867;DHT22;1441;48.886;8.728;2023-07-20T13:27:31;29.50;46.10
2867;DHT22;1441;48.886;8.728;2023-07-20T13:29:58;29.30;43.10
2867;DHT22;1441;48.886;8.728;2023-07-20T13:32:24;29.50;43.10
2867;DHT22;1441;48.886;8.728;2023-07-20T13:34:49;29.70;40.70
2867;DHT22;1441;48.886;8.728;2023-07-20T13:37:15;29.60;40.90
2867;DHT22;1441;48.886;8.728;2023-07-20T13:39:41;29.60;41.80
2867;DHT22;1441;48.886;8.728;2023-07-20T13:42:07;29.60;42.90
2867;DHT22;1441;48.886;8.728;2023-07-20T13:44:35;29.50;42.50
2867;DHT22;1441;48.886;8.728;2023-07-20T13:47:01;29.50;39.90
2867;DHT22;1441;48.886;8.728;2023-07-20T13:49:27;29.50;40.50
2867;DHT22;1441;48.886;8.728;2023-07-20T13:51:53;29.30;43.10
2867;DHT22;1441;48.886;8.728;2023-07-20T13:54:19;29.20;42.40
2867;DHT22;1441;48.886;8.728;2023-07-20T13:56:45;29.30;42.90
2867;DHT22;1441;48.886;8.728;2023-07-20T13:59:11;29.30;43.40
2867;DHT22;1441;48.886;8.728;2023-07-20T14:01:36;29.40;43.80
2867;DHT22;1441;48.886;8.728;2023-07-20T14:04:02;29.30;43.60
2867;DHT22;1441;48.886;8.728;2023-07-20T14:06:30;29.40;44.80
2867;DHT22;1441;48.886;8.728;2023-07-20T14:08:56;29.50;43.80
2867;DHT22;1441;48.886;8.728;2023-07-20T14:11:22;29.40;43.30
2867;DHT22;1441;48.886;8.728;2023-07-20T14:13:48;29.30;44.10
2867;DHT22;1441;48.886;8.728;2023-07-20T14:16:13;29.30;44.80
2867;DHT22;1441;48.886;8.728;2023-07-20T14:18:39;29.20;45.10
2867;DHT22;1441;48.886;8.728;2023-07-20T14:21:05;29.00;45.00
2867;DHT22;1441;48.886;8.728;2023-07-20T14:23:32;29.00;45.60
2867;DHT22;1441;48.886;8.728;2023-07-20T14:25:58;29.00;44.50
2867;DHT22;1441;48.886;8.728;2023-07-20T14:28:24;29.00;45.40
2867;DHT22;1441;48.886;8.728;2023-07-20T14:30:50;29.00;43.50
2867;DHT22;1441;48.886;8.728;2023-07-20T14:33:15;29.10;44.60
2867;DHT22;1441;48.886;8.728;2023-07-20T14:35:41;29.00;45.00
2867;DHT22;1441;48.886;8.728;2023-07-20T14:38:07;29.00;43.70
2867;DHT22;1441;48.886;8.728;2023-07-20T14:40:32;28.90;44.80
2867;DHT22;1441;48.886;8.728;2023-07-20T14:42:58;28.80;45.30
2867;DHT22;1441;48.886;8.728;2023-07-20T14:45:27;28.80;45.30
2867;DHT22;1441;48.886;8.728;2023-07-20T14:47:52;28.80;45.40
2867;DHT22;1441;48.886;8.728;2023-07-20T14:50:22;28.80;44.10
2867;DHT22;1441;48.886;8.728;2023-07-20T14:52:48;28.80;45.60
2867;DHT22;1441;48.886;8.728;2023-07-20T14:55:15;28.90;45.90
2867;DHT22;1441;48.886;8.728;2023-07-20T14:57:40;28.90;46.10
2867;DHT22;1441;48.886;8.728;2023-07-20T15:00:06;28.70;44.70
2867;DHT22;1441;48.886;8.728;2023-07-20T15:02:36;28.50;45.80
2867;DHT22;1441;48.886;8.728;2023-07-20T15:05:02;28.70;46.80
2867;DHT22;1441;48.886;8.728;2023-07-20T15:07:28;28.70;44.20
2867;DHT22;1441;48.886;8.728;2023-07-20T15:09:53;28.60;44.00
2867;DHT22;1441;48.886;8.728;2023-07-20T15:12:19;28.50;44.30
2867;DHT22;1441;48.886;8.728;2023-07-20T15:15:02;28.40;44.60
2867;DHT22;1441;48.886;8.728;2023-07-20T15:17:28;28.40;44.20
2867;DHT22;1441;48.886;8.728;2023-07-20T15:19:54;28.30;45.50
2867;DHT22;1441;48.886;8.728;2023-07-20T15:22:19;28.20;44.40
2867;DHT22;1441;48.886;8.728;2023-07-20T15:24:45;28.20;45.80
2867;DHT22;1441;48.886;8.728;2023-07-20T15:27:10;28.30;45.00
2867;DHT22;1441;48.886;8.728;2023-07-20T15:29:36;28.30;45.20
2867;DHT22;1441;48.886;8.728;2023-07-20T15:32:02;28.30;43.70
2867;DHT22;1441;48.886;8.728;2023-07-20T15:34:27;28.30;45.10
2867;DHT22;1441;48.886;8.728;2023-07-20T15:36:53;28.30;44.50
2867;DHT22;1441;48.886;8.728;2023-07-20T15:39:19;28.20;44.90
2867;DHT22;1441;48.886;8.728;2023-07-20T15:41:47;28.10;44.80
2867;DHT22;1441;48.886;8.728;2023-07-20T15:44:13;27.90;45.10
2867;DHT22;1441;48.886;8.728;2023-07-20T15:49:04;27.60;45.10
2867;DHT22;1441;48.886;8.728;2023-07-20T15:51:30;27.30;46.20
2867;DHT22;1441;48.886;8.728;2023-07-20T15:53:55;27.20;46.30
2867;DHT22;1441;48.886;8.728;2023-07-20T15:56:21;27.30;45.60
2867;DHT22;1441;48.886;8.728;2023-07-20T15:58:47;27.10;46.30
2867;DHT22;1441;48.886;8.728;2023-07-20T16:01:12;27.00;46.20
2867;DHT22;1441;48.886;8.728;2023-07-20T16:03:38;27.00;46.70
2867;DHT22;1441;48.886;8.728;2023-07-20T16:06:04;26.90;47.00
2867;DHT22;1441;48.886;8.728;2023-07-20T16:08:30;26.90;48.00
2867;DHT22;1441;48.886;8.728;2023-07-20T16:10:56;26.90;47.70
2867;DHT22;1441;48.886;8.728;2023-07-20T16:13:23;26.90;47.90
2867;DHT22;1441;48.886;8.728;2023-07-20T16:15:52;27.00;48.40
2867;DHT22;1441;48.886;8.728;2023-07-20T16:18:18;27.10;47.70
2867;DHT22;1441;48.886;8.728;2023-07-20T16:20:44;26.90;47.80
2867;DHT22;1441;48.886;8.728;2023-07-20T16:23:10;26.80;47.30
2867;DHT22;1441;48.886;8.728;2023-07-20T16:25:37;26.70;48.20
2867;DHT22;1441;48.886;8.728;2023-07-20T16:28:02;26.60;48.30